Time;durP1;ratioP1;P1;durP2;ratioP2;P2;SDS_P1;SDS_P2;PMS_P1;PMS_P2;Temp;Humidity;BMP_temperature;BMP_pressure;BME280_temperature;BME280_humidity;BME280_pressure;Samples;Min_cycle;Max_cycle;Signal;HPM_P1;HPM_P2
2023/09/18 00:03:26;;;;;;;;;;;21.40;99.90;;;;;;6681038;88;20084;-77
2023/09/18 00:13:26;;;;;;;;;;;21.40;99.90;;;;;;6681295;88;20096;-77
2023/09/18 00:23:27;;;;;;;;;;;21.50;99.90;;;;;;6687496;88;20129;-76
2023/09/18 00:33:27;;;;;;;;;;;21.50;99.90;;;;;;6685442;88;20519;-76
2023/09/18 00:43:28;;;;;;;;;;;21.40;99.90;;;;;;6684063;88;20065;-77
2023/09/18 00:53:28;;;;;;;;;;;21.20;99.90;;;;;;6681901;88;20064;-76
2023/09/18 01:03:29;;;;;;;;;;;21.00;99.90;;;;;;6681588;88;20055;-75
2023/09/18 01:13:32;;;;;;;;;;;21.00;99.90;;;;;;6680420;88;20158;-77
2023/09/18 01:23:32;;;;;;;;;;;21.00;99.90;;;;;;6682543;88;20193;-77
2023/09/18 01:43:36;;;;;;;;;;;21.10;99.90;;;;;;6700589;88;20089;-78
2023/09/18 01:53:36;;;;;;;;;;;21.10;99.90;;;;;;6710069;88;20591;-77
2023/09/18 02:03:41;;;;;;;;;;;21.20;99.90;;;;;;6704392;88;20067;-77
2023/09/18 02:13:42;;;;;;;;;;;21.30;99.90;;;;;;6717591;88;20078;-77
2023/09/18 02:23:42;;;;;;;;;;;21.80;99.90;;;;;;6714117;88;20055;-78
2023/09/18 02:33:42;;;;;;;;;;;21.30;99.90;;;;;;6713141;88;20065;-79
2023/09/18 02:43:43;;;;;;;;;;;20.60;99.90;;;;;;6712621;88;20069;-80
2023/09/18 02:53:43;;;;;;;;;;;20.40;99.90;;;;;;6715074;88;20062;-80
2023/09/18 03:03:44;;;;;;;;;;;20.20;99.90;;;;;;6712411;88;20748;-79
2023/09/18 03:13:46;;;;;;;;;;;20.00;99.90;;;;;;6716009;88;20055;-78
2023/09/18 03:23:46;;;;;;;;;;;19.90;99.90;;;;;;6726431;88;20077;-78
2023/09/18 03:33:47;;;;;;;;;;;20.00;99.90;;;;;;6726490;88;20599;-78
2023/09/18 03:43:49;;;;;;;;;;;20.00;99.90;;;;;;6726187;88;20082;-78
2023/09/18 03:53:50;;;;;;;;;;;19.80;99.90;;;;;;6702513;88;20051;-78
2023/09/18 04:03:51;;;;;;;;;;;19.60;99.90;;;;;;6715047;88;20063;-78
2023/09/18 04:13:51;;;;;;;;;;;19.70;99.90;;;;;;6710679;88;20065;-78
2023/09/18 04:23:57;;;;;;;;;;;19.60;99.90;;;;;;6710851;88;20118;-78
2023/09/18 04:33:57;;;;;;;;;;;19.50;99.90;;;;;;6710608;88;20094;-80
2023/09/18 04:43:58;;;;;;;;;;;19.40;99.90;;;;;;6712031;88;20076;-79
2023/09/18 04:53:59;;;;;;;;;;;19.50;99.90;;;;;;6707008;88;20514;-79
2023/09/18 05:04:00;;;;;;;;;;;19.50;99.90;;;;;;6710450;88;20062;-78
2023/09/18 05:14:00;;;;;;;;;;;19.40;99.90;;;;;;6705933;88;20066;-78
2023/09/18 05:24:00;;;;;;;;;;;19.40;99.90;;;;;;6707690;88;20060;-79
2023/09/18 05:34:01;;;;;;;;;;;19.40;99.90;;;;;;6710611;88;20059;-80
2023/09/18 05:44:03;;;;;;;;;;;19.60;99.90;;;;;;6693857;88;20127;-79
2023/09/18 05:54:04;;;;;;;;;;;19.80;99.90;;;;;;6696294;88;20091;-80
2023/09/18 06:04:04;;;;;;;;;;;19.90;99.90;;;;;;6704335;88;20064;-79
2023/09/18 06:14:05;;;;;;;;;;;20.10;99.90;;;;;;6705967;88;20056;-80
2023/09/18 06:24:06;;;;;;;;;;;20.20;99.90;;;;;;6708268;88;20098;-80
2023/09/18 06:34:06;;;;;;;;;;;20.30;99.90;;;;;;6723387;88;20603;-79
2023/09/18 06:44:07;;;;;;;;;;;20.30;99.90;;;;;;6711413;88;20098;-79
2023/09/18 06:54:07;;;;;;;;;;;20.50;99.90;;;;;;6707865;88;20086;-80
2023/09/18 07:04:08;;;;;;;;;;;20.60;99.90;;;;;;6722920;88;20599;-80
2023/09/18 07:14:09;;;;;;;;;;;20.60;99.90;;;;;;6722158;88;20187;-80
2023/09/18 07:24:10;;;;;;;;;;;20.60;99.90;;;;;;6706433;88;20477;-79
2023/09/18 07:34:10;;;;;;;;;;;20.70;99.90;;;;;;6704361;88;20059;-79
2023/09/18 07:44:11;;;;;;;;;;;20.60;99.90;;;;;;6716990;88;20596;-80
2023/09/18 07:54:14;;;;;;;;;;;20.80;99.90;;;;;;6716445;88;20118;-80
2023/09/18 08:04:14;;;;;;;;;;;20.70;99.90;;;;;;6708297;88;20055;-79
2023/09/18 08:14:15;;;;;;;;;;;20.80;99.90;;;;;;6711783;88;20483;-79
2023/09/18 08:24:15;;;;;;;;;;;20.80;99.90;;;;;;6710959;88;20180;-80
2023/09/18 08:34:16;;;;;;;;;;;21.00;99.90;;;;;;6711182;88;20154;-79
2023/09/18 08:44:17;;;;;;;;;;;21.00;99.90;;;;;;6727736;88;20179;-80
2023/09/18 08:54:17;;;;;;;;;;;21.00;99.90;;;;;;6718756;88;20060;-80
2023/09/18 09:04:18;;;;;;;;;;;21.20;99.90;;;;;;6714403;88;20254;-80
2023/09/18 09:14:21;;;;;;;;;;;21.30;99.90;;;;;;6709935;88;20081;-80
2023/09/18 09:24:38;;;;;;;;;;;21.40;99.90;;;;;;6703462;88;20063;-80
2023/09/18 09:34:40;;;;;;;;;;;21.60;99.90;;;;;;6714476;88;20117;-79
2023/09/18 09:44:41;;;;;;;;;;;21.50;99.90;;;;;;6707226;88;20082;-79
2023/09/18 09:54:41;;;;;;;;;;;21.60;99.90;;;;;;6712115;88;20130;-79
2023/09/18 10:04:43;;;;;;;;;;;21.90;99.90;;;;;;6707015;88;20212;-79
2023/09/18 10:14:48;;;;;;;;;;;22.10;99.90;;;;;;6709847;88;20096;-78
2023/09/18 10:24:50;;;;;;;;;;;22.40;99.90;;;;;;6702570;88;20063;-79
2023/09/18 10:34:51;;;;;;;;;;;23.50;99.90;;;;;;6707341;88;20705;-80
2023/09/18 10:44:51;;;;;;;;;;;24.60;99.90;;;;;;6711295;88;20058;-78
2023/09/18 10:54:52;;;;;;;;;;;24.70;99.90;;;;;;6705438;88;20242;-77
2023/09/18 11:04:54;;;;;;;;;;;25.50;99.90;;;;;;6703356;88;20060;-77
2023/09/18 11:14:54;;;;;;;;;;;26.20;99.90;;;;;;6715853;88;20066;-77
2023/09/18 11:25:15;;;;;;;;;;;26.20;99.90;;;;;;6702907;88;20502;-78
2023/09/18 11:35:18;;;;;;;;;;;26.30;99.90;;;;;;6707881;88;20048;-79
2023/09/18 11:45:18;;;;;;;;;;;26.70;99.90;;;;;;6703194;88;20063;-77
2023/09/18 11:55:19;;;;;;;;;;;27.00;99.90;;;;;;6693123;88;20530;-78
2023/09/18 12:05:20;;;;;;;;;;;27.60;99.90;;;;;;6694845;88;20258;-78
2023/09/18 12:15:20;;;;;;;;;;;27.00;99.90;;;;;;6695548;88;20525;-78
2023/09/18 12:25:23;;;;;;;;;;;27.60;99.90;;;;;;6688498;88;21036;-78
2023/09/18 12:35:29;;;;;;;;;;;27.20;99.90;;;;;;6688035;88;20113;-78
2023/09/18 12:45:29;;;;;;;;;;;27.50;99.90;;;;;;6706495;88;20072;-78
2023/09/18 12:55:30;;;;;;;;;;;28.00;99.90;;;;;;6711107;88;20072;-79
2023/09/18 13:05:34;;;;;;;;;;;27.00;99.90;;;;;;6708116;88;20064;-78
2023/09/18 13:15:35;;;;;;;;;;;27.80;99.80;;;;;;6706484;88;20055;-77
2023/09/18 13:25:38;;;;;;;;;;;27.60;99.90;;;;;;6709425;88;20155;-80
2023/09/18 13:35:40;;;;;;;;;;;26.70;99.90;;;;;;6702979;88;20072;-77
2023/09/18 13:45:41;;;;;;;;;;;27.40;99.90;;;;;;6707112;88;20056;-78
2023/09/18 13:55:41;;;;;;;;;;;27.30;99.80;;;;;;6705481;88;20085;-78
2023/09/18 14:05:42;;;;;;;;;;;26.90;99.40;;;;;;6712419;88;20080;-78
2023/09/18 14:15:42;;;;;;;;;;;27.70;98.50;;;;;;6712592;88;20094;-78
2023/09/18 14:25:43;;;;;;;;;;;27.20;99.00;;;;;;6705112;88;20059;-78
2023/09/18 14:35:43;;;;;;;;;;;28.10;98.60;;;;;;6706401;88;20102;-80
2023/09/18 14:45:44;;;;;;;;;;;27.80;99.00;;;;;;6713764;88;20531;-81
2023/09/18 14:55:44;;;;;;;;;;;27.80;98.20;;;;;;6711783;88;20094;-81
2023/09/18 15:05:45;;;;;;;;;;;27.20;98.30;;;;;;6707265;88;20469;-82
2023/09/18 15:26:27;;;;;;;;;;;26.60;99.30;;;;;;6662775;88;20079;-80
2023/09/18 15:36:27;;;;;;;;;;;26.50;98.50;;;;;;6662430;89;20076;-79
2023/09/18 15:46:27;;;;;;;;;;;27.00;97.60;;;;;;6662297;89;20044;-79
2023/09/18 15:56:28;;;;;;;;;;;26.50;98.50;;;;;;6670693;89;20160;-80
2023/09/18 16:06:29;;;;;;;;;;;26.00;98.70;;;;;;6682530;88;20683;-81
2023/09/18 16:16:29;;;;;;;;;;;25.50;99.20;;;;;;6666655;89;20049;-79
2023/09/18 16:26:30;;;;;;;;;;;25.30;99.90;;;;;;6666164;89;20174;-79
2023/09/18 16:36:30;;;;;;;;;;;25.10;99.90;;;;;;6680309;88;20567;-78
2023/09/18 16:46:30;;;;;;;;;;;25.20;99.90;;;;;;6670416;88;20065;-78
2023/09/18 16:56:31;;;;;;;;;;;24.70;99.90;;;;;;6674963;88;20085;-79
2023/09/18 17:06:35;;;;;;;;;;;24.40;99.90;;;;;;6662429;88;20064;-78
2023/09/18 17:16:36;;;;;;;;;;;24.10;99.90;;;;;;6664414;89;20073;-79
2023/09/18 17:26:36;;;;;;;;;;;23.90;99.90;;;;;;6675768;88;20091;-78
2023/09/18 17:36:37;;;;;;;;;;;23.70;99.90;;;;;;6676212;88;20126;-80
2023/09/18 17:46:38;;;;;;;;;;;23.50;99.90;;;;;;6683932;89;20071;-80
2023/09/18 17:56:38;;;;;;;;;;;23.40;99.90;;;;;;6682783;89;20113;-81
2023/09/18 18:06:39;;;;;;;;;;;23.20;99.90;;;;;;6684912;89;20140;-81
2023/09/18 18:16:39;;;;;;;;;;;23.20;99.90;;;;;;6687507;88;20115;-82
2023/09/18 18:26:39;;;;;;;;;;;23.10;99.90;;;;;;6741464;88;20062;-81
2023/09/18 18:36:40;;;;;;;;;;;23.00;99.90;;;;;;6726460;88;20679;-75
2023/09/18 18:46:40;;;;;;;;;;;17.90;99.90;;;;;;6727515;88;20200;-75
2023/09/18 18:56:43;;;;;;;;;;;16.80;99.90;;;;;;6728981;88;20080;-77
2023/09/18 19:06:44;;;;;;;;;;;16.70;99.90;;;;;;6727567;88;20099;-77
2023/09/18 19:16:44;;;;;;;;;;;16.60;99.90;;;;;;6727289;88;20099;-77
2023/09/18 19:26:45;;;;;;;;;;;16.60;99.90;;;;;;6678530;88;20086;-78
2023/09/18 19:36:48;;;;;;;;;;;16.70;99.90;;;;;;6668968;88;20086;-77
2023/09/18 19:46:48;;;;;;;;;;;16.60;99.90;;;;;;6675996;88;20103;-78
2023/09/18 19:56:49;;;;;;;;;;;16.50;99.90;;;;;;6668187;88;20088;-79
2023/09/18 20:06:52;;;;;;;;;;;16.40;99.90;;;;;;6672826;88;20106;-78
2023/09/18 20:16:53;;;;;;;;;;;16.50;99.90;;;;;;6667480;88;20149;-79
2023/09/18 20:26:53;;;;;;;;;;;16.50;99.90;;;;;;6672604;88;20216;-77
2023/09/18 20:36:53;;;;;;;;;;;16.60;99.90;;;;;;6667651;88;20295;-77
2023/09/18 20:46:54;;;;;;;;;;;16.60;99.90;;;;;;6673082;88;20086;-77
2023/09/18 20:56:54;;;;;;;;;;;16.50;99.90;;;;;;6671607;88;20136;-77
2023/09/18 21:06:55;;;;;;;;;;;16.60;99.90;;;;;;6667710;88;20181;-77
2023/09/18 21:16:56;;;;;;;;;;;16.50;99.90;;;;;;6679719;87;21029;-77
2023/09/18 21:26:56;;;;;;;;;;;16.50;99.90;;;;;;6731645;88;20100;-76
2023/09/18 21:36:56;;;;;;;;;;;16.60;99.90;;;;;;6733756;88;20131;-76
2023/09/18 21:46:57;;;;;;;;;;;16.60;99.90;;;;;;6739463;88;20064;-76
2023/09/18 21:56:57;;;;;;;;;;;16.70;99.90;;;;;;6734729;88;20100;-75
2023/09/18 22:06:58;;;;;;;;;;;16.70;99.90;;;;;;6742538;88;20160;-76
2023/09/18 22:16:58;;;;;;;;;;;16.70;99.90;;;;;;6734522;88;20096;-78
2023/09/18 22:27:00;;;;;;;;;;;16.80;99.90;;;;;;6663006;88;20106;-77
2023/09/18 22:37:00;;;;;;;;;;;16.80;99.90;;;;;;6662642;88;20559;-77
2023/09/18 22:47:19;;;;;;;;;;;16.90;99.90;;;;;;6662415;88;20072;-78
2023/09/18 22:57:20;;;;;;;;;;;16.90;99.90;;;;;;6665564;88;20596;-78
2023/09/18 23:07:21;;;;;;;;;;;16.70;99.90;;;;;;6667239;88;20094;-77
2023/09/18 23:17:22;;;;;;;;;;;16.50;99.90;;;;;;6677078;88;20115;-78
2023/09/18 23:27:26;;;;;;;;;;;16.40;99.90;;;;;;6674116;88;20164;-76
2023/09/18 23:37:27;;;;;;;;;;;16.30;99.90;;;;;;6673630;88;20076;-78
2023/09/18 23:47:28;;;;;;;;;;;16.20;99.90;;;;;;6679130;88;20109;-78
2023/09/18 23:57:32;;;;;;;;;;;16.00;99.90;;;;;;6671222;88;20175;-76
